Time;durP1;ratioP1;P1;durP2;ratioP2;P2;SDS_P1;SDS_P2;PMS_P1;PMS_P2;Temp;Humidity;BMP_temperature;BMP_pressure;BME280_temperature;BME280_humidity;BME280_pressure;Samples;Min_cycle;Max_cycle;Signal;HPM_P1;HPM_P2
2020/03/05 00:00:59;;;;;;;3.65;2.15;;;;;;;-0.34;60.01074;94524.89;;;;
2020/03/05 00:02:08;;;;;;;3.65;2.15;;;;;;;-0.34;60.01074;94524.89;;;;
2020/03/05 00:03:17;;;;;;;3.1;2;;;;;;;-0.5;59.98828;94518.08;;;;
2020/03/05 00:04:18;;;;;;;3.1;2;;;;;;;-0.5;59.98828;94518.08;;;;
2020/03/05 00:05:19;;;;;;;3.1;2;;;;;;;-0.5;59.98828;94518.08;;;;
2020/03/05 00:06:20;;;;;;;3.1;2;;;;;;;-0.5;59.98828;94518.08;;;;
2020/03/05 00:07:21;;;;;;;3.1;2;;;;;;;-0.5;59.98828;94518.08;;;;
2020/03/05 00:08:21;;;;;;;3.1;2;;;;;;;-0.5;59.98828;94518.08;;;;
2020/03/05 00:09:22;;;;;;;3.1;2;;;;;;;-0.5;59.98828;94518.08;;;;
2020/03/05 00:10:22;;;;;;;3.1;2;;;;;;;-0.5;59.98828;94518.08;;;;
2020/03/05 00:11:23;;;;;;;3.1;2;;;;;;;-0.5;59.98828;94518.08;;;;
2020/03/05 00:12:23;;;;;;;3.1;2;;;;;;;-0.5;59.98828;94518.08;;;;
2020/03/05 00:13:23;;;;;;;3.35;1.85;;;;;;;-0.47;60.71387;94512.02;;;;
2020/03/05 00:14:24;;;;;;;3.35;1.85;;;;;;;-0.47;60.71387;94512.02;;;;
2020/03/05 00:15:24;;;;;;;3.35;1.85;;;;;;;-0.47;60.71387;94512.02;;;;
2020/03/05 00:16:25;;;;;;;3.35;1.85;;;;;;;-0.47;60.71387;94512.02;;;;
2020/03/05 00:17:25;;;;;;;3.35;1.85;;;;;;;-0.47;60.71387;94512.02;;;;
2020/03/05 00:18:26;;;;;;;3.35;1.85;;;;;;;-0.47;60.71387;94512.02;;;;
2020/03/05 00:19:26;;;;;;;3.35;1.85;;;;;;;-0.47;60.71387;94512.02;;;;
2020/03/05 00:20:27;;;;;;;3.35;1.85;;;;;;;-0.47;60.71387;94512.02;;;;
2020/03/05 00:21:27;;;;;;;3.35;1.85;;;;;;;-0.47;60.71387;94512.02;;;;
2020/03/05 00:22:28;;;;;;;3.35;1.85;;;;;;;-0.47;60.71387;94512.02;;;;
2020/03/05 00:23:28;;;;;;;3.7;2;;;;;;;-0.34;61.18359;94497.05;;;;
2020/03/05 00:24:29;;;;;;;3.7;2;;;;;;;-0.34;61.18359;94497.05;;;;
2020/03/05 00:25:29;;;;;;;3.7;2;;;;;;;-0.34;61.18359;94497.05;;;;
2020/03/05 00:26:30;;;;;;;3.7;2;;;;;;;-0.34;61.18359;94497.05;;;;
2020/03/05 00:27:30;;;;;;;3.7;2;;;;;;;-0.34;61.18359;94497.05;;;;
2020/03/05 00:28:30;;;;;;;3.7;2;;;;;;;-0.34;61.18359;94497.05;;;;
2020/03/05 00:29:31;;;;;;;3.7;2;;;;;;;-0.34;61.18359;94497.05;;;;
2020/03/05 00:30:31;;;;;;;3.7;2;;;;;;;-0.34;61.18359;94497.05;;;;
2020/03/05 00:31:32;;;;;;;3.7;2;;;;;;;-0.34;61.18359;94497.05;;;;
2020/03/05 00:32:32;;;;;;;3.7;2;;;;;;;-0.34;61.18359;94497.05;;;;
2020/03/05 00:33:33;;;;;;;3.7;2;;;;;;;-0.34;61.18359;94497.05;;;;
2020/03/05 00:34:34;;;;;;;3.7;2;;;;;;;-0.34;61.18359;94497.05;;;;
2020/03/05 00:35:34;;;;;;;3.7;2;;;;;;;-0.34;61.18359;94497.05;;;;
2020/03/05 00:36:34;;;;;;;3.7;2;;;;;;;-0.34;61.18359;94497.05;;;;
2020/03/05 00:37:35;;;;;;;3.7;2;;;;;;;-0.34;61.18359;94497.05;;;;
2020/03/05 00:38:35;;;;;;;3.7;2;;;;;;;-0.34;61.18359;94497.05;;;;
2020/03/05 00:39:36;;;;;;;3.7;2;;;;;;;-0.34;61.18359;94497.05;;;;
2020/03/05 00:40:36;;;;;;;3.7;2;;;;;;;-0.34;61.18359;94497.05;;;;
2020/03/05 00:41:37;;;;;;;3.7;2;;;;;;;-0.34;61.18359;94497.05;;;;
2020/03/05 00:42:37;;;;;;;3.7;2;;;;;;;-0.34;61.18359;94497.05;;;;
2020/03/05 00:43:38;;;;;;;3.7;2;;;;;;;-0.34;61.18359;94497.05;;;;
2020/03/05 00:44:38;;;;;;;3.7;2;;;;;;;-0.34;61.18359;94497.05;;;;
2020/03/05 00:45:39;;;;;;;4.45;2;;;;;;;0.05;60.49512;94455.47;;;;
2020/03/05 00:46:39;;;;;;;4.45;2;;;;;;;0.05;60.49512;94455.47;;;;
2020/03/05 00:47:39;;;;;;;4.45;2;;;;;;;0.05;60.49512;94455.47;;;;
2020/03/05 00:48:40;;;;;;;4.45;2;;;;;;;0.05;60.49512;94455.47;;;;
2020/03/05 00:49:40;;;;;;;4.45;2;;;;;;;0.05;60.49512;94455.47;;;;
2020/03/05 00:50:41;;;;;;;4.45;2;;;;;;;0.05;60.49512;94455.47;;;;
2020/03/05 00:51:41;;;;;;;4.45;2;;;;;;;0.05;60.49512;94455.47;;;;
2020/03/05 00:52:42;;;;;;;4.45;2;;;;;;;0.05;60.49512;94455.47;;;;
2020/03/05 01:09:54;;;;;;;2.8;1.65;;;;;;;-0.13;60.94238;94430.72;;;;
2020/03/05 01:10:57;;;;;;;2.8;1.65;;;;;;;-0.13;60.94238;94430.72;;;;
2020/03/05 01:11:59;;;;;;;2.8;1.65;;;;;;;-0.13;60.94238;94430.72;;;;
2020/03/05 01:13:02;;;;;;;2.8;1.65;;;;;;;-0.13;60.94238;94430.72;;;;
2020/03/05 01:14:03;;;;;;;2.8;1.65;;;;;;;-0.13;60.94238;94430.72;;;;
2020/03/05 01:15:04;;;;;;;2.8;1.65;;;;;;;-0.13;60.94238;94430.72;;;;
2020/03/05 01:16:04;;;;;;;2.8;1.65;;;;;;;-0.13;60.94238;94430.72;;;;
2020/03/05 01:17:05;;;;;;;3.9;1.85;;;;;;;-0.25;61.14453;94425.63;;;;
2020/03/05 01:18:05;;;;;;;3.9;1.85;;;;;;;-0.25;61.14453;94425.63;;;;
2020/03/05 01:19:06;;;;;;;3.9;1.85;;;;;;;-0.25;61.14453;94425.63;;;;
2020/03/05 01:20:06;;;;;;;3.9;1.85;;;;;;;-0.25;61.14453;94425.63;;;;
2020/03/05 01:21:07;;;;;;;3.9;1.85;;;;;;;-0.25;61.14453;94425.63;;;;
2020/03/05 01:22:07;;;;;;;3.9;1.85;;;;;;;-0.25;61.14453;94425.63;;;;
2020/03/05 01:23:11;;;;;;;3.9;1.85;;;;;;;-0.25;61.14453;94425.63;;;;
2020/03/05 01:24:12;;;;;;;3.9;1.85;;;;;;;-0.25;61.14453;94425.63;;;;
2020/03/05 01:25:12;;;;;;;3.9;1.85;;;;;;;-0.25;61.14453;94425.63;;;;
2020/03/05 01:26:13;;;;;;;3.9;1.85;;;;;;;-0.25;61.14453;94425.63;;;;
2020/03/05 01:27:13;;;;;;;3.9;1.85;;;;;;;-0.25;61.14453;94425.63;;;;
2020/03/05 01:28:14;;;;;;;2.5;1.85;;;;;;;-0.43;61.12793;94399.66;;;;
2020/03/05 01:29:14;;;;;;;2.5;1.85;;;;;;;-0.43;61.12793;94399.66;;;;
2020/03/05 01:30:15;;;;;;;2.5;1.85;;;;;;;-0.43;61.12793;94399.66;;;;
2020/03/05 01:31:15;;;;;;;2.5;1.85;;;;;;;-0.43;61.12793;94399.66;;;;
2020/03/05 01:32:16;;;;;;;2.5;1.85;;;;;;;-0.43;61.12793;94399.66;;;;
2020/03/05 01:33:16;;;;;;;2.5;1.85;;;;;;;-0.43;61.12793;94399.66;;;;
2020/03/05 01:34:17;;;;;;;2.5;1.85;;;;;;;-0.43;61.12793;94399.66;;;;
2020/03/05 01:35:17;;;;;;;2.5;1.85;;;;;;;-0.43;61.12793;94399.66;;;;
2020/03/05 01:36:18;;;;;;;2.5;1.85;;;;;;;-0.43;61.12793;94399.66;;;;
2020/03/05 01:37:18;;;;;;;2.5;1.85;;;;;;;-0.43;61.12793;94399.66;;;;
2020/03/05 01:38:19;;;;;;;2.45;1.85;;;;;;;-0.61;61.29102;94382.06;;;;
2020/03/05 01:39:19;;;;;;;2.45;1.85;;;;;;;-0.61;61.29102;94382.06;;;;
2020/03/05 01:40:19;;;;;;;2.45;1.85;;;;;;;-0.61;61.29102;94382.06;;;;
2020/03/05 01:41:20;;;;;;;2.45;1.85;;;;;;;-0.61;61.29102;94382.06;;;;
2020/03/05 01:42:20;;;;;;;2.45;1.85;;;;;;;-0.61;61.29102;94382.06;;;;
2020/03/05 01:43:21;;;;;;;2.45;1.85;;;;;;;-0.61;61.29102;94382.06;;;;
2020/03/05 01:44:21;;;;;;;2.45;1.85;;;;;;;-0.61;61.29102;94382.06;;;;
2020/03/05 01:45:22;;;;;;;2.45;1.85;;;;;;;-0.61;61.29102;94382.06;;;;
2020/03/05 01:46:22;;;;;;;2.45;1.85;;;;;;;-0.61;61.29102;94382.06;;;;
2020/03/05 01:47:23;;;;;;;2.45;1.85;;;;;;;-0.61;61.29102;94382.06;;;;
2020/03/05 01:48:24;;;;;;;2.45;1.85;;;;;;;-0.61;61.29102;94382.06;;;;
2020/03/05 01:49:25;;;;;;;4;1.75;;;;;;;-0.72;61.62109;94370.15;;;;
2020/03/05 01:50:25;;;;;;;4;1.75;;;;;;;-0.72;61.62109;94370.15;;;;
2020/03/05 01:51:26;;;;;;;4;1.75;;;;;;;-0.72;61.62109;94370.15;;;;
2020/03/05 01:52:26;;;;;;;4;1.75;;;;;;;-0.72;61.62109;94370.15;;;;
2020/03/05 01:53:27;;;;;;;4;1.75;;;;;;;-0.72;61.62109;94370.15;;;;
2020/03/05 01:54:27;;;;;;;4;1.75;;;;;;;-0.72;61.62109;94370.15;;;;
2020/03/05 01:55:28;;;;;;;4;1.75;;;;;;;-0.72;61.62109;94370.15;;;;
2020/03/05 01:56:29;;;;;;;4;1.75;;;;;;;-0.72;61.62109;94370.15;;;;
2020/03/05 01:57:34;;;;;;;4;1.75;;;;;;;-0.72;61.62109;94370.15;;;;
2020/03/05 01:58:35;;;;;;;4;1.75;;;;;;;-0.72;61.62109;94370.15;;;;
2020/03/05 01:59:36;;;;;;;1.85;1.6;;;;;;;-0.63;61.59277;94345.15;;;;
2020/03/05 02:00:37;;;;;;;1.85;1.6;;;;;;;-0.63;61.59277;94345.15;;;;
2020/03/05 02:01:37;;;;;;;1.85;1.6;;;;;;;-0.63;61.59277;94345.15;;;;
2020/03/05 02:02:39;;;;;;;1.85;1.6;;;;;;;-0.63;61.59277;94345.15;;;;
2020/03/05 02:03:39;;;;;;;1.85;1.6;;;;;;;-0.63;61.59277;94345.15;;;;
2020/03/05 02:04:40;;;;;;;1.85;1.6;;;;;;;-0.63;61.59277;94345.15;;;;
2020/03/05 02:05:40;;;;;;;1.85;1.6;;;;;;;-0.63;61.59277;94345.15;;;;
2020/03/05 02:06:41;;;;;;;1.85;1.6;;;;;;;-0.63;61.59277;94345.15;;;;
2020/03/05 02:07:41;;;;;;;1.85;1.6;;;;;;;-0.63;61.59277;94345.15;;;;
2020/03/05 02:08:41;;;;;;;1.85;1.6;;;;;;;-0.63;61.59277;94345.15;;;;
2020/03/05 02:09:42;;;;;;;1.85;1.6;;;;;;;-0.63;61.59277;94345.15;;;;
2020/03/05 02:10:43;;;;;;;2.7;1.7;;;;;;;-0.7;61.63281;94333.8;;;;
2020/03/05 02:11:44;;;;;;;2.7;1.7;;;;;;;-0.7;61.63281;94333.8;;;;
2020/03/05 02:12:44;;;;;;;2.7;1.7;;;;;;;-0.7;61.63281;94333.8;;;;
2020/03/05 02:13:45;;;;;;;2.7;1.7;;;;;;;-0.7;61.63281;94333.8;;;;
2020/03/05 02:14:46;;;;;;;2.7;1.7;;;;;;;-0.7;61.63281;94333.8;;;;
2020/03/05 02:15:46;;;;;;;2.7;1.7;;;;;;;-0.7;61.63281;94333.8;;;;
2020/03/05 02:16:47;;;;;;;2.7;1.7;;;;;;;-0.7;61.63281;94333.8;;;;
2020/03/05 02:17:47;;;;;;;2.7;1.7;;;;;;;-0.7;61.63281;94333.8;;;;
2020/03/05 02:18:48;;;;;;;2.7;1.7;;;;;;;-0.7;61.63281;94333.8;;;;
2020/03/05 02:19:48;;;;;;;2.7;1.7;;;;;;;-0.7;61.63281;94333.8;;;;
2020/03/05 02:20:49;;;;;;;2.35;1.7;;;;;;;-0.7;61.58203;94310.75;;;;
2020/03/05 02:21:49;;;;;;;2.35;1.7;;;;;;;-0.7;61.58203;94310.75;;;;
2020/03/05 02:22:50;;;;;;;2.35;1.7;;;;;;;-0.7;61.58203;94310.75;;;;
2020/03/05 02:23:50;;;;;;;2.35;1.7;;;;;;;-0.7;61.58203;94310.75;;;;
2020/03/05 02:24:51;;;;;;;2.35;1.7;;;;;;;-0.7;61.58203;94310.75;;;;
2020/03/05 02:25:51;;;;;;;2.35;1.7;;;;;;;-0.7;61.58203;94310.75;;;;
2020/03/05 02:26:52;;;;;;;2.35;1.7;;;;;;;-0.7;61.58203;94310.75;;;;
2020/03/05 02:27:53;;;;;;;2.35;1.7;;;;;;;-0.7;61.58203;94310.75;;;;
2020/03/05 02:28:53;;;;;;;2.35;1.7;;;;;;;-0.7;61.58203;94310.75;;;;
2020/03/05 02:29:54;;;;;;;2.35;1.7;;;;;;;-0.7;61.58203;94310.75;;;;
2020/03/05 02:30:54;;;;;;;2.35;1.7;;;;;;;-0.7;61.58203;94310.75;;;;
2020/03/05 02:31:55;;;;;;;2.1;1.7;;;;;;;-0.66;61.66016;94311.1;;;;
2020/03/05 02:32:55;;;;;;;2.1;1.7;;;;;;;-0.66;61.66016;94311.1;;;;
2020/03/05 02:33:56;;;;;;;2.1;1.7;;;;;;;-0.66;61.66016;94311.1;;;;
2020/03/05 02:34:56;;;;;;;2.1;1.7;;;;;;;-0.66;61.66016;94311.1;;;;
2020/03/05 02:35:57;;;;;;;2.1;1.7;;;;;;;-0.66;61.66016;94311.1;;;;
2020/03/05 02:36:57;;;;;;;2.1;1.7;;;;;;;-0.66;61.66016;94311.1;;;;
2020/03/05 02:37:58;;;;;;;2.1;1.7;;;;;;;-0.66;61.66016;94311.1;;;;
2020/03/05 02:38:58;;;;;;;2.1;1.7;;;;;;;-0.66;61.66016;94311.1;;;;
2020/03/05 02:39:59;;;;;;;2.1;1.7;;;;;;;-0.66;61.66016;94311.1;;;;
2020/03/05 02:40:59;;;;;;;2.1;1.7;;;;;;;-0.66;61.66016;94311.1;;;;
2020/03/05 02:42:00;;;;;;;2.45;1.65;;;;;;;-0.36;61.70313;94291.44;;;;
2020/03/05 02:43:00;;;;;;;2.45;1.65;;;;;;;-0.36;61.70313;94291.44;;;;
2020/03/05 02:44:01;;;;;;;2.45;1.65;;;;;;;-0.36;61.70313;94291.44;;;;
2020/03/05 02:45:02;;;;;;;2.45;1.65;;;;;;;-0.36;61.70313;94291.44;;;;
2020/03/05 02:46:03;;;;;;;2.45;1.65;;;;;;;-0.36;61.70313;94291.44;;;;
2020/03/05 02:47:03;;;;;;;2.45;1.65;;;;;;;-0.36;61.70313;94291.44;;;;
2020/03/05 02:48:04;;;;;;;2.45;1.65;;;;;;;-0.36;61.70313;94291.44;;;;
2020/03/05 02:49:04;;;;;;;2.45;1.65;;;;;;;-0.36;61.70313;94291.44;;;;
2020/03/05 02:50:05;;;;;;;2.45;1.65;;;;;;;-0.36;61.70313;94291.44;;;;
2020/03/05 02:51:06;;;;;;;2.45;1.65;;;;;;;-0.36;61.70313;94291.44;;;;
2020/03/05 02:52:06;;;;;;;2.45;1.65;;;;;;;-0.36;61.70313;94291.44;;;;
2020/03/05 02:53:08;;;;;;;2.4;1.6;;;;;;;-0.06;61.50586;94283.56;;;;
2020/03/05 02:54:09;;;;;;;2.4;1.6;;;;;;;-0.06;61.50586;94283.56;;;;
2020/03/05 02:55:09;;;;;;;2.4;1.6;;;;;;;-0.06;61.50586;94283.56;;;;
2020/03/05 02:56:10;;;;;;;2.4;1.6;;;;;;;-0.06;61.50586;94283.56;;;;
2020/03/05 02:57:10;;;;;;;2.4;1.6;;;;;;;-0.06;61.50586;94283.56;;;;
2020/03/05 02:58:11;;;;;;;2.4;1.6;;;;;;;-0.06;61.50586;94283.56;;;;
2020/03/05 02:59:11;;;;;;;2.4;1.6;;;;;;;-0.06;61.50586;94283.56;;;;
2020/03/05 03:00:12;;;;;;;2.4;1.6;;;;;;;-0.06;61.50586;94283.56;;;;
2020/03/05 03:01:12;;;;;;;2.4;1.6;;;;;;;-0.06;61.50586;94283.56;;;;
2020/03/05 03:02:12;;;;;;;2.4;1.6;;;;;;;-0.06;61.50586;94283.56;;;;
2020/03/05 03:03:13;;;;;;;4.45;1.7;;;;;;;0.23;61.39063;94288.2;;;;
2020/03/05 03:04:13;;;;;;;4.45;1.7;;;;;;;0.23;61.39063;94288.2;;;;
2020/03/05 03:05:14;;;;;;;4.45;1.7;;;;;;;0.23;61.39063;94288.2;;;;
2020/03/05 03:06:14;;;;;;;4.45;1.7;;;;;;;0.23;61.39063;94288.2;;;;
2020/03/05 03:07:15;;;;;;;4.45;1.7;;;;;;;0.23;61.39063;94288.2;;;;
2020/03/05 03:08:16;;;;;;;4.45;1.7;;;;;;;0.23;61.39063;94288.2;;;;
2020/03/05 03:09:16;;;;;;;4.45;1.7;;;;;;;0.23;61.39063;94288.2;;;;
2020/03/05 03:10:16;;;;;;;4.45;1.7;;;;;;;0.23;61.39063;94288.2;;;;
2020/03/05 03:11:17;;;;;;;4.45;1.7;;;;;;;0.23;61.39063;94288.2;;;;
2020/03/05 03:12:17;;;;;;;4.45;1.7;;;;;;;0.23;61.39063;94288.2;;;;
2020/03/05 03:13:18;;;;;;;4.45;1.7;;;;;;;0.23;61.39063;94288.2;;;;
2020/03/05 03:14:19;;;;;;;2.55;1.5;;;;;;;0.47;61.76172;94278.37;;;;
2020/03/05 03:15:19;;;;;;;2.55;1.5;;;;;;;0.47;61.76172;94278.37;;;;
2020/03/05 03:16:19;;;;;;;2.55;1.5;;;;;;;0.47;61.76172;94278.37;;;;
2020/03/05 03:17:20;;;;;;;2.55;1.5;;;;;;;0.47;61.76172;94278.37;;;;
2020/03/05 03:18:20;;;;;;;2.55;1.5;;;;;;;0.47;61.76172;94278.37;;;;
2020/03/05 03:19:21;;;;;;;2.55;1.5;;;;;;;0.47;61.76172;94278.37;;;;
2020/03/05 03:20:21;;;;;;;2.55;1.5;;;;;;;0.47;61.76172;94278.37;;;;
2020/03/05 03:21:22;;;;;;;2.55;1.5;;;;;;;0.47;61.76172;94278.37;;;;
2020/03/05 03:22:23;;;;;;;2.55;1.5;;;;;;;0.47;61.76172;94278.37;;;;
2020/03/05 03:23:23;;;;;;;2.55;1.5;;;;;;;0.47;61.76172;94278.37;;;;
2020/03/05 03:24:24;;;;;;;1.9;1.3;;;;;;;0.79;61.62988;94273.68;;;;
2020/03/05 03:25:24;;;;;;;1.9;1.3;;;;;;;0.79;61.62988;94273.68;;;;
2020/03/05 03:26:24;;;;;;;1.9;1.3;;;;;;;0.79;61.62988;94273.68;;;;
2020/03/05 03:27:25;;;;;;;1.9;1.3;;;;;;;0.79;61.62988;94273.68;;;;
2020/03/05 03:28:26;;;;;;;1.9;1.3;;;;;;;0.79;61.62988;94273.68;;;;
2020/03/05 03:29:26;;;;;;;1.9;1.3;;;;;;;0.79;61.62988;94273.68;;;;
2020/03/05 03:30:27;;;;;;;1.9;1.3;;;;;;;0.79;61.62988;94273.68;;;;
2020/03/05 03:31:27;;;;;;;1.9;1.3;;;;;;;0.79;61.62988;94273.68;;;;
2020/03/05 03:32:28;;;;;;;1.9;1.3;;;;;;;0.79;61.62988;94273.68;;;;
2020/03/05 03:33:29;;;;;;;1.9;1.3;;;;;;;0.79;61.62988;94273.68;;;;
2020/03/05 03:34:29;;;;;;;1.9;1.3;;;;;;;0.79;61.62988;94273.68;;;;
2020/03/05 03:35:30;;;;;;;1.55;1.45;;;;;;;0.94;61.55664;94263.67;;;;
2020/03/05 03:36:30;;;;;;;1.55;1.45;;;;;;;0.94;61.55664;94263.67;;;;
2020/03/05 03:37:31;;;;;;;1.55;1.45;;;;;;;0.94;61.55664;94263.67;;;;
2020/03/05 03:38:31;;;;;;;1.55;1.45;;;;;;;0.94;61.55664;94263.67;;;;
2020/03/05 03:39:31;;;;;;;1.55;1.45;;;;;;;0.94;61.55664;94263.67;;;;
2020/03/05 03:40:32;;;;;;;1.55;1.45;;;;;;;0.94;61.55664;94263.67;;;;
2020/03/05 03:41:32;;;;;;;1.55;1.45;;;;;;;0.94;61.55664;94263.67;;;;
2020/03/05 03:42:33;;;;;;;1.55;1.45;;;;;;;0.94;61.55664;94263.67;;;;
2020/03/05 03:43:34;;;;;;;1.55;1.45;;;;;;;0.94;61.55664;94263.67;;;;
2020/03/05 03:44:34;;;;;;;1.55;1.45;;;;;;;0.94;61.55664;94263.67;;;;
2020/03/05 03:45:34;;;;;;;2.35;1.35;;;;;;;1.1;61.96875;94250.9;;;;
2020/03/05 03:46:35;;;;;;;2.35;1.35;;;;;;;1.1;61.96875;94250.9;;;;
2020/03/05 03:47:35;;;;;;;2.35;1.35;;;;;;;1.1;61.96875;94250.9;;;;
2020/03/05 03:48:36;;;;;;;2.35;1.35;;;;;;;1.1;61.96875;94250.9;;;;
2020/03/05 03:49:36;;;;;;;2.35;1.35;;;;;;;1.1;61.96875;94250.9;;;;
2020/03/05 03:50:37;;;;;;;2.35;1.35;;;;;;;1.1;61.96875;94250.9;;;;
2020/03/05 03:51:37;;;;;;;2.35;1.35;;;;;;;1.1;61.96875;94250.9;;;;
2020/03/05 03:52:37;;;;;;;2.35;1.35;;;;;;;1.1;61.96875;94250.9;;;;
2020/03/05 03:53:38;;;;;;;2.35;1.35;;;;;;;1.1;61.96875;94250.9;;;;
2020/03/05 03:54:39;;;;;;;2.35;1.35;;;;;;;1.1;61.96875;94250.9;;;;
2020/03/05 03:55:39;;;;;;;2.35;1.35;;;;;;;1.1;61.96875;94250.9;;;;
2020/03/05 03:56:39;;;;;;;3.15;1.25;;;;;;;1.18;62.00098;94247.24;;;;
2020/03/05 03:57:40;;;;;;;3.15;1.25;;;;;;;1.18;62.00098;94247.24;;;;
2020/03/05 03:58:40;;;;;;;3.15;1.25;;;;;;;1.18;62.00098;94247.24;;;;
2020/03/05 03:59:41;;;;;;;3.15;1.25;;;;;;;1.18;62.00098;94247.24;;;;
2020/03/05 04:00:41;;;;;;;3.15;1.25;;;;;;;1.18;62.00098;94247.24;;;;
2020/03/05 04:01:42;;;;;;;3.15;1.25;;;;;;;1.18;62.00098;94247.24;;;;
2020/03/05 04:02:42;;;;;;;3.15;1.25;;;;;;;1.18;62.00098;94247.24;;;;
2020/03/05 04:03:43;;;;;;;3.15;1.25;;;;;;;1.18;62.00098;94247.24;;;;
2020/03/05 04:04:44;;;;;;;3.15;1.25;;;;;;;1.18;62.00098;94247.24;;;;
2020/03/05 04:05:44;;;;;;;3.15;1.25;;;;;;;1.18;62.00098;94247.24;;;;
2020/03/05 04:06:45;;;;;;;1.5;1.1;;;;;;;1.37;62.2168;94234.85;;;;
2020/03/05 04:07:45;;;;;;;1.5;1.1;;;;;;;1.37;62.2168;94234.85;;;;
2020/03/05 04:08:46;;;;;;;1.5;1.1;;;;;;;1.37;62.2168;94234.85;;;;
2020/03/05 04:09:47;;;;;;;1.5;1.1;;;;;;;1.37;62.2168;94234.85;;;;
2020/03/05 04:10:47;;;;;;;1.5;1.1;;;;;;;1.37;62.2168;94234.85;;;;
2020/03/05 04:11:48;;;;;;;1.5;1.1;;;;;;;1.37;62.2168;94234.85;;;;
2020/03/05 04:12:49;;;;;;;1.5;1.1;;;;;;;1.37;62.2168;94234.85;;;;
2020/03/05 04:13:51;;;;;;;1.5;1.1;;;;;;;1.37;62.2168;94234.85;;;;
2020/03/05 04:14:52;;;;;;;1.5;1.1;;;;;;;1.37;62.2168;94234.85;;;;
2020/03/05 04:15:52;;;;;;;1.5;1.1;;;;;;;1.37;62.2168;94234.85;;;;
2020/03/05 04:16:53;;;;;;;1.5;1.1;;;;;;;1.37;62.2168;94234.85;;;;
2020/03/05 04:17:53;;;;;;;1.5;1.25;;;;;;;1.53;62.24219;94227.27;;;;
2020/03/05 04:18:54;;;;;;;1.5;1.25;;;;;;;1.53;62.24219;94227.27;;;;
2020/03/05 04:19:54;;;;;;;1.5;1.25;;;;;;;1.53;62.24219;94227.27;;;;
2020/03/05 04:20:55;;;;;;;1.5;1.25;;;;;;;1.53;62.24219;94227.27;;;;
2020/03/05 04:21:55;;;;;;;1.5;1.25;;;;;;;1.53;62.24219;94227.27;;;;
2020/03/05 04:22:56;;;;;;;1.5;1.25;;;;;;;1.53;62.24219;94227.27;;;;
2020/03/05 04:23:56;;;;;;;1.5;1.25;;;;;;;1.53;62.24219;94227.27;;;;
2020/03/05 04:24:57;;;;;;;1.5;1.25;;;;;;;1.53;62.24219;94227.27;;;;
2020/03/05 04:25:57;;;;;;;1.5;1.25;;;;;;;1.53;62.24219;94227.27;;;;
2020/03/05 04:27:00;;;;;;;1.5;1.25;;;;;;;1.53;62.24219;94227.27;;;;
2020/03/05 04:28:00;;;;;;;2.5;1.15;;;;;;;1.78;62.06543;94209.33;;;;
2020/03/05 04:29:01;;;;;;;2.5;1.15;;;;;;;1.78;62.06543;94209.33;;;;
2020/03/05 04:30:02;;;;;;;2.5;1.15;;;;;;;1.78;62.06543;94209.33;;;;
2020/03/05 04:31:05;;;;;;;2.5;1.15;;;;;;;1.78;62.06543;94209.33;;;;
2020/03/05 04:32:05;;;;;;;2.5;1.15;;;;;;;1.78;62.06543;94209.33;;;;
2020/03/05 04:33:06;;;;;;;2.5;1.15;;;;;;;1.78;62.06543;94209.33;;;;
2020/03/05 04:34:07;;;;;;;2.5;1.15;;;;;;;1.78;62.06543;94209.33;;;;
2020/03/05 04:35:07;;;;;;;2.5;1.15;;;;;;;1.78;62.06543;94209.33;;;;
2020/03/05 04:36:08;;;;;;;2.5;1.15;;;;;;;1.78;62.06543;94209.33;;;;
2020/03/05 04:37:08;;;;;;;2.5;1.15;;;;;;;1.78;62.06543;94209.33;;;;
2020/03/05 04:38:09;;;;;;;2.5;1.15;;;;;;;1.78;62.06543;94209.33;;;;
2020/03/05 04:39:10;;;;;;;2.35;1.2;;;;;;;1.88;61.93457;94225.16;;;;
2020/03/05 04:40:10;;;;;;;2.35;1.2;;;;;;;1.88;61.93457;94225.16;;;;
2020/03/05 04:41:11;;;;;;;2.35;1.2;;;;;;;1.88;61.93457;94225.16;;;;
2020/03/05 04:42:11;;;;;;;2.35;1.2;;;;;;;1.88;61.93457;94225.16;;;;
2020/03/05 04:43:12;;;;;;;2.35;1.2;;;;;;;1.88;61.93457;94225.16;;;;
2020/03/05 04:44:12;;;;;;;2.35;1.2;;;;;;;1.88;61.93457;94225.16;;;;
2020/03/05 04:45:13;;;;;;;2.35;1.2;;;;;;;1.88;61.93457;94225.16;;;;
2020/03/05 04:46:13;;;;;;;2.35;1.2;;;;;;;1.88;61.93457;94225.16;;;;
2020/03/05 04:47:14;;;;;;;2.35;1.2;;;;;;;1.88;61.93457;94225.16;;;;
2020/03/05 04:48:14;;;;;;;2.35;1.2;;;;;;;1.88;61.93457;94225.16;;;;
2020/03/05 04:49:15;;;;;;;1.6;1.2;;;;;;;2.04;61.91504;94213.23;;;;
2020/03/05 04:50:15;;;;;;;1.6;1.2;;;;;;;2.04;61.91504;94213.23;;;;
2020/03/05 04:51:16;;;;;;;1.6;1.2;;;;;;;2.04;61.91504;94213.23;;;;
2020/03/05 04:52:16;;;;;;;1.6;1.2;;;;;;;2.04;61.91504;94213.23;;;;
2020/03/05 04:53:17;;;;;;;1.6;1.2;;;;;;;2.04;61.91504;94213.23;;;;
2020/03/05 04:54:17;;;;;;;1.6;1.2;;;;;;;2.04;61.91504;94213.23;;;;
2020/03/05 04:55:18;;;;;;;1.6;1.2;;;;;;;2.04;61.91504;94213.23;;;;
2020/03/05 04:56:18;;;;;;;1.6;1.2;;;;;;;2.04;61.91504;94213.23;;;;
2020/03/05 04:57:19;;;;;;;1.6;1.2;;;;;;;2.04;61.91504;94213.23;;;;
2020/03/05 04:58:19;;;;;;;1.6;1.2;;;;;;;2.04;61.91504;94213.23;;;;
2020/03/05 04:59:20;;;;;;;1.6;1.2;;;;;;;2.04;61.91504;94213.23;;;;
2020/03/05 05:00:20;;;;;;;2.7;1.3;;;;;;;2.15;61.75195;94211.25;;;;
2020/03/05 05:01:21;;;;;;;2.7;1.3;;;;;;;2.15;61.75195;94211.25;;;;
2020/03/05 05:02:22;;;;;;;2.7;1.3;;;;;;;2.15;61.75195;94211.25;;;;
2020/03/05 05:03:22;;;;;;;2.7;1.3;;;;;;;2.15;61.75195;94211.25;;;;
2020/03/05 05:04:22;;;;;;;2.7;1.3;;;;;;;2.15;61.75195;94211.25;;;;
2020/03/05 05:05:23;;;;;;;2.7;1.3;;;;;;;2.15;61.75195;94211.25;;;;
2020/03/05 05:06:23;;;;;;;2.7;1.3;;;;;;;2.15;61.75195;94211.25;;;;
2020/03/05 05:07:24;;;;;;;2.7;1.3;;;;;;;2.15;61.75195;94211.25;;;;
2020/03/05 05:08:24;;;;;;;2.7;1.3;;;;;;;2.15;61.75195;94211.25;;;;
2020/03/05 05:09:25;;;;;;;2.7;1.3;;;;;;;2.15;61.75195;94211.25;;;;
2020/03/05 05:10:25;;;;;;;1.9;1.2;;;;;;;2.3;61.77344;94197.58;;;;
2020/03/05 05:11:26;;;;;;;1.9;1.2;;;;;;;2.3;61.77344;94197.58;;;;
2020/03/05 05:12:27;;;;;;;1.9;1.2;;;;;;;2.3;61.77344;94197.58;;;;
2020/03/05 05:13:27;;;;;;;1.9;1.2;;;;;;;2.3;61.77344;94197.58;;;;
2020/03/05 05:14:28;;;;;;;1.9;1.2;;;;;;;2.3;61.77344;94197.58;;;;
2020/03/05 05:15:29;;;;;;;1.9;1.2;;;;;;;2.3;61.77344;94197.58;;;;
2020/03/05 05:16:29;;;;;;;1.9;1.2;;;;;;;2.3;61.77344;94197.58;;;;
2020/03/05 05:17:30;;;;;;;1.9;1.2;;;;;;;2.3;61.77344;94197.58;;;;
2020/03/05 05:18:32;;;;;;;1.9;1.2;;;;;;;2.3;61.77344;94197.58;;;;
2020/03/05 05:19:32;;;;;;;1.9;1.2;;;;;;;2.3;61.77344;94197.58;;;;
2020/03/05 05:20:33;;;;;;;1.9;1.2;;;;;;;2.3;61.77344;94197.58;;;;
2020/03/05 05:21:33;;;;;;;2.1;1.15;;;;;;;2.37;61.70996;94180.63;;;;
2020/03/05 05:22:34;;;;;;;2.1;1.15;;;;;;;2.37;61.70996;94180.63;;;;
2020/03/05 05:23:34;;;;;;;2.1;1.15;;;;;;;2.37;61.70996;94180.63;;;;
2020/03/05 05:24:35;;;;;;;2.1;1.15;;;;;;;2.37;61.70996;94180.63;;;;
2020/03/05 05:25:36;;;;;;;2.1;1.15;;;;;;;2.37;61.70996;94180.63;;;;
2020/03/05 05:26:36;;;;;;;2.1;1.15;;;;;;;2.37;61.70996;94180.63;;;;
2020/03/05 05:27:36;;;;;;;2.1;1.15;;;;;;;2.37;61.70996;94180.63;;;;
2020/03/05 05:28:37;;;;;;;2.1;1.15;;;;;;;2.37;61.70996;94180.63;;;;
2020/03/05 05:29:37;;;;;;;2.1;1.15;;;;;;;2.37;61.70996;94180.63;;;;
2020/03/05 05:30:38;;;;;;;2.1;1.15;;;;;;;2.37;61.70996;94180.63;;;;
2020/03/05 05:31:38;;;;;;;3.05;1.25;;;;;;;2.51;61.7002;94176.36;;;;
2020/03/05 05:32:39;;;;;;;3.05;1.25;;;;;;;2.51;61.7002;94176.36;;;;
2020/03/05 05:33:39;;;;;;;3.05;1.25;;;;;;;2.51;61.7002;94176.36;;;;
2020/03/05 05:34:40;;;;;;;3.05;1.25;;;;;;;2.51;61.7002;94176.36;;;;
2020/03/05 05:35:41;;;;;;;3.05;1.25;;;;;;;2.51;61.7002;94176.36;;;;
2020/03/05 05:36:42;;;;;;;3.05;1.25;;;;;;;2.51;61.7002;94176.36;;;;
2020/03/05 05:37:42;;;;;;;3.05;1.25;;;;;;;2.51;61.7002;94176.36;;;;
2020/03/05 05:38:43;;;;;;;3.05;1.25;;;;;;;2.51;61.7002;94176.36;;;;
2020/03/05 05:39:43;;;;;;;3.05;1.25;;;;;;;2.51;61.7002;94176.36;;;;
2020/03/05 05:40:44;;;;;;;3.05;1.25;;;;;;;2.51;61.7002;94176.36;;;;
2020/03/05 05:41:45;;;;;;;3.05;1.25;;;;;;;2.51;61.7002;94176.36;;;;
2020/03/05 05:42:47;;;;;;;2.5;1.6;;;;;;;2.59;61.74219;94169.97;;;;
2020/03/05 05:43:47;;;;;;;2.5;1.6;;;;;;;2.59;61.74219;94169.97;;;;
2020/03/05 05:44:48;;;;;;;2.5;1.6;;;;;;;2.59;61.74219;94169.97;;;;
2020/03/05 05:45:48;;;;;;;2.5;1.6;;;;;;;2.59;61.74219;94169.97;;;;
2020/03/05 05:46:49;;;;;;;2.5;1.6;;;;;;;2.59;61.74219;94169.97;;;;
2020/03/05 05:47:49;;;;;;;2.5;1.6;;;;;;;2.59;61.74219;94169.97;;;;
2020/03/05 05:48:51;;;;;;;2.5;1.6;;;;;;;2.59;61.74219;94169.97;;;;
2020/03/05 05:49:51;;;;;;;2.5;1.6;;;;;;;2.59;61.74219;94169.97;;;;
2020/03/05 05:50:51;;;;;;;2.5;1.6;;;;;;;2.59;61.74219;94169.97;;;;
2020/03/05 05:51:52;;;;;;;2.5;1.6;;;;;;;2.59;61.74219;94169.97;;;;
2020/03/05 05:52:53;;;;;;;3.25;1.8;;;;;;;2.72;61.80176;94169.44;;;;
2020/03/05 05:53:53;;;;;;;3.25;1.8;;;;;;;2.72;61.80176;94169.44;;;;
2020/03/05 05:54:54;;;;;;;3.25;1.8;;;;;;;2.72;61.80176;94169.44;;;;
2020/03/05 05:55:55;;;;;;;3.25;1.8;;;;;;;2.72;61.80176;94169.44;;;;
2020/03/05 05:56:55;;;;;;;3.25;1.8;;;;;;;2.72;61.80176;94169.44;;;;
2020/03/05 05:57:56;;;;;;;3.25;1.8;;;;;;;2.72;61.80176;94169.44;;;;
2020/03/05 05:58:56;;;;;;;3.25;1.8;;;;;;;2.72;61.80176;94169.44;;;;
2020/03/05 05:59:57;;;;;;;3.25;1.8;;;;;;;2.72;61.80176;94169.44;;;;
2020/03/05 06:00:58;;;;;;;3.25;1.8;;;;;;;2.72;61.80176;94169.44;;;;
2020/03/05 06:02:04;;;;;;;3.25;1.8;;;;;;;2.72;61.80176;94169.44;;;;
2020/03/05 06:03:06;;;;;;;3.25;1.8;;;;;;;2.72;61.80176;94169.44;;;;
2020/03/05 06:04:06;;;;;;;1.85;1.4;;;;;;;2.72;62.01465;94156.94;;;;
2020/03/05 06:05:07;;;;;;;1.85;1.4;;;;;;;2.72;62.01465;94156.94;;;;
2020/03/05 06:06:08;;;;;;;1.85;1.4;;;;;;;2.72;62.01465;94156.94;;;;
2020/03/05 06:07:09;;;;;;;1.85;1.4;;;;;;;2.72;62.01465;94156.94;;;;
2020/03/05 06:08:10;;;;;;;1.85;1.4;;;;;;;2.72;62.01465;94156.94;;;;
2020/03/05 06:09:10;;;;;;;1.85;1.4;;;;;;;2.72;62.01465;94156.94;;;;
2020/03/05 06:10:12;;;;;;;1.85;1.4;;;;;;;2.72;62.01465;94156.94;;;;
2020/03/05 06:11:12;;;;;;;1.85;1.4;;;;;;;2.72;62.01465;94156.94;;;;